Time;durP1;ratioP1;P1;durP2;ratioP2;P2;SDS_P1;SDS_P2;PMS_P1;PMS_P2;Temp;Humidity;BMP_temperature;BMP_pressure;BME280_temperature;BME280_humidity;BME280_pressure;Samples;Min_cycle;Max_cycle;Signal;HPM_P1;HPM_P2
2021/06/21 00:02:16;;;;;;;14.32;3.30;;;;;;;18.21;100.00;95510.66;5038923;28;20300;-73
2021/06/21 00:04:43;;;;;;;18.20;2.15;;;;;;;18.31;100.00;95513.50;5038239;28;20264;-73
2021/06/21 00:07:10;;;;;;;9.30;2.10;;;;;;;18.28;100.00;95516.63;5037751;28;20221;-73
2021/06/21 00:09:37;;;;;;;13.95;2.28;;;;;;;18.24;100.00;95518.19;5038159;28;20916;-73
2021/06/21 00:12:04;;;;;;;12.07;2.22;;;;;;;18.22;100.00;95521.09;5038006;28;20216;-73
2021/06/21 00:14:30;;;;;;;11.38;2.65;;;;;;;18.15;100.00;95508.91;5037274;28;20224;-73
2021/06/21 00:16:57;;;;;;;13.07;2.35;;;;;;;18.19;100.00;95510.09;5037816;28;20273;-73
2021/06/21 00:19:23;;;;;;;13.63;2.42;;;;;;;18.18;100.00;95509.28;5038231;28;20205;-73
2021/06/21 00:21:50;;;;;;;13.05;2.67;;;;;;;18.24;100.00;95496.84;5037114;28;20205;-72
2021/06/21 00:24:20;;;;;;;12.13;2.63;;;;;;;18.17;100.00;95481.00;5038060;28;20573;-73
2021/06/21 00:26:47;;;;;;;15.73;2.33;;;;;;;18.23;100.00;95471.22;5036816;28;20217;-73
2021/06/21 00:29:13;;;;;;;9.20;2.42;;;;;;;18.26;100.00;95466.22;5037310;28;20654;-72
2021/06/21 00:31:40;;;;;;;13.68;2.53;;;;;;;18.23;100.00;95464.03;5037957;28;20201;-74
2021/06/21 00:34:06;;;;;;;17.60;2.50;;;;;;;18.25;100.00;95467.25;5038343;28;20209;-72
2021/06/21 00:36:33;;;;;;;13.27;2.45;;;;;;;18.21;100.00;95481.34;5036657;28;20322;-72
2021/06/21 00:38:59;;;;;;;13.10;2.60;;;;;;;18.14;100.00;95469.97;5037579;28;20220;-74
2021/06/21 00:41:27;;;;;;;14.98;2.55;;;;;;;18.16;100.00;95474.00;5037570;28;20663;-73
2021/06/21 00:43:54;;;;;;;16.42;2.70;;;;;;;18.18;100.00;95481.81;5037732;28;20639;-73
2021/06/21 00:46:21;;;;;;;18.63;2.75;;;;;;;18.22;100.00;95474.97;5036720;28;20228;-72
2021/06/21 00:48:48;;;;;;;14.27;2.75;;;;;;;18.22;100.00;95475.75;5037220;28;20201;-74
2021/06/21 00:51:14;;;;;;;9.95;2.55;;;;;;;18.22;100.00;95485.63;5037106;28;20690;-73
2021/06/21 00:53:41;;;;;;;17.15;2.53;;;;;;;18.16;100.00;95495.34;5037153;28;20212;-73
2021/06/21 00:56:08;;;;;;;26.67;2.60;;;;;;;18.23;100.00;95490.72;5036725;28;20228;-74
2021/06/21 00:58:36;;;;;;;14.95;2.65;;;;;;;18.25;100.00;95487.78;5037099;28;20675;-74
2021/06/21 01:01:04;;;;;;;16.73;2.70;;;;;;;18.15;100.00;95480.41;5037164;28;20201;-72
2021/06/21 01:03:30;;;;;;;12.65;2.10;;;;;;;18.12;100.00;95477.41;5037284;28;20216;-72
2021/06/21 01:05:57;;;;;;;12.77;2.40;;;;;;;18.14;100.00;95486.78;5036781;28;20221;-74
2021/06/21 01:08:24;;;;;;;16.27;2.25;;;;;;;18.07;100.00;95488.78;5036608;28;20734;-73
2021/06/21 01:10:55;;;;;;;13.57;2.95;;;;;;;18.08;100.00;95481.63;5036817;28;20212;-73
2021/06/21 01:13:48;;;;;;;20.15;2.42;;;;;;;18.11;100.00;95483.78;5037244;28;20205;-73
2021/06/21 01:16:22;;;;;;;14.02;2.10;;;;;;;18.12;100.00;95493.41;5019245;28;20240;-74
2021/06/21 01:18:55;;;;;;;18.27;2.58;;;;;;;18.04;100.00;95499.16;5036637;28;20212;-73
2021/06/21 01:21:53;;;;;;;14.50;2.42;;;;;;;18.15;100.00;95492.91;5035761;28;20212;-72
2021/06/21 01:25:02;;;;;;;13.70;2.13;;;;;;;18.15;100.00;95491.09;5037068;28;20209;-74
2021/06/21 01:27:58;;;;;;;14.95;3.05;;;;;;;18.03;100.00;95492.97;5036507;28;20235;-73
2021/06/21 01:30:35;;;;;;;10.27;2.20;;;;;;;18.01;100.00;95497.78;4991074;28;20205;-73
2021/06/21 01:33:06;;;;;;;13.98;2.20;;;;;;;17.99;100.00;95507.06;5036498;28;20212;-72
2021/06/21 01:35:35;;;;;;;9.73;2.28;;;;;;;17.97;100.00;95504.63;5036228;28;20225;-73
2021/06/21 01:38:06;;;;;;;15.57;2.58;;;;;;;17.95;100.00;95513.91;5037047;28;20201;-74
2021/06/21 01:40:38;;;;;;;13.95;2.83;;;;;;;17.93;100.00;95510.66;5036669;28;20193;-73
2021/06/21 01:43:07;;;;;;;15.20;2.67;;;;;;;17.92;100.00;95503.72;5036713;28;20209;-73
2021/06/21 01:45:36;;;;;;;12.88;2.65;;;;;;;17.92;100.00;95509.88;5036740;28;20236;-73
2021/06/21 01:48:07;;;;;;;13.13;2.28;;;;;;;18.00;100.00;95516.69;5036532;28;20234;-73
2021/06/21 01:50:34;;;;;;;12.43;2.75;;;;;;;17.92;100.00;95509.03;5036265;28;20594;-73
2021/06/21 01:53:06;;;;;;;13.68;2.90;;;;;;;17.90;100.00;95509.28;5037337;28;20212;-74
2021/06/21 01:55:35;;;;;;;9.00;2.40;;;;;;;17.92;100.00;95509.88;5035579;28;20734;-73
2021/06/21 01:58:02;;;;;;;14.40;3.17;;;;;;;17.86;100.00;95504.69;5036395;28;20201;-72
2021/06/21 02:00:29;;;;;;;11.55;2.50;;;;;;;17.78;100.00;95508.53;5036303;28;20749;-73
2021/06/21 02:02:58;;;;;;;10.75;2.72;;;;;;;17.78;100.00;95505.88;5036196;28;20621;-73
2021/06/21 02:05:28;;;;;;;13.15;2.70;;;;;;;17.71;100.00;95498.28;5035295;28;20224;-73
2021/06/21 02:07:56;;;;;;;10.13;2.55;;;;;;;17.73;100.00;95504.94;5036257;28;20575;-74
2021/06/21 02:10:23;;;;;;;11.05;2.90;;;;;;;17.74;100.00;95502.06;5036158;28;20209;-72
2021/06/21 02:12:52;;;;;;;13.45;2.55;;;;;;;17.76;100.00;95493.84;5036159;28;20702;-74
2021/06/21 02:15:19;;;;;;;14.95;3.10;;;;;;;17.68;100.00;95496.88;5035800;28;20236;-73
2021/06/21 02:17:46;;;;;;;16.30;2.83;;;;;;;17.67;100.00;95503.25;5036244;28;20201;-73
2021/06/21 02:20:15;;;;;;;14.18;3.13;;;;;;;17.62;100.00;95502.38;5036120;28;20205;-73
2021/06/21 02:22:43;;;;;;;17.00;3.22;;;;;;;17.56;100.00;95504.09;5036411;28;20213;-73
2021/06/21 02:25:11;;;;;;;14.13;3.40;;;;;;;17.60;100.00;95497.25;5036017;28;20241;-73
2021/06/21 02:27:39;;;;;;;13.90;3.75;;;;;;;17.62;100.00;95492.50;5035670;28;20232;-73
2021/06/21 02:30:09;;;;;;;12.90;2.42;;;;;;;17.68;100.00;95491.56;5036388;28;20201;-73
2021/06/21 02:32:35;;;;;;;19.48;3.63;;;;;;;17.71;100.00;95494.53;5036057;28;20201;-73
2021/06/21 02:35:03;;;;;;;10.93;2.70;;;;;;;17.70;100.00;95500.09;5035603;28;20228;-73
2021/06/21 02:37:30;;;;;;;13.63;3.08;;;;;;;17.64;100.00;95498.38;5035547;28;20718;-73
2021/06/21 02:39:58;;;;;;;16.08;3.03;;;;;;;17.71;100.00;95501.72;5035829;28;20201;-73
2021/06/21 02:42:24;;;;;;;9.65;2.83;;;;;;;17.70;100.00;95499.31;5036561;28;20569;-73
2021/06/21 02:44:51;;;;;;;9.70;2.58;;;;;;;17.68;100.00;95498.72;5035954;28;20225;-73
2021/06/21 02:47:19;;;;;;;9.35;3.30;;;;;;;17.71;100.00;95497.19;5039197;28;20225;-74
2021/06/21 02:49:46;;;;;;;14.35;2.80;;;;;;;17.61;100.00;95495.41;5040001;28;20208;-73
2021/06/21 02:52:17;;;;;;;10.52;3.50;;;;;;;17.68;100.00;95504.88;5039768;28;20208;-74
2021/06/21 02:55:06;;;;;;;11.30;2.83;;;;;;;17.73;100.00;95510.28;5037401;28;20217;-74
2021/06/21 02:57:40;;;;;;;10.80;2.85;;;;;;;17.65;100.00;95510.66;5040543;28;20201;-75
2021/06/21 03:00:07;;;;;;;13.43;3.10;;;;;;;17.58;100.00;95512.69;5038899;28;20291;-74
2021/06/21 03:02:36;;;;;;;12.77;3.00;;;;;;;17.53;100.00;95520.56;5039250;28;20201;-74
2021/06/21 03:05:04;;;;;;;11.35;2.72;;;;;;;17.57;100.00;95521.72;5039384;28;20326;-74
2021/06/21 03:07:32;;;;;;;12.90;2.90;;;;;;;17.47;100.00;95526.03;5039566;28;20225;-74
2021/06/21 03:10:00;;;;;;;12.75;3.22;;;;;;;17.42;100.00;95529.38;5039285;28;20672;-74
2021/06/21 03:12:29;;;;;;;11.13;3.05;;;;;;;17.41;100.00;95556.25;5039221;28;20216;-74
2021/06/21 03:14:58;;;;;;;13.05;3.53;;;;;;;17.26;100.00;95567.41;5038615;28;20727;-74
2021/06/21 03:17:25;;;;;;;15.75;2.72;;;;;;;17.15;100.00;95581.50;5038432;28;20250;-74
2021/06/21 03:19:52;;;;;;;9.02;2.15;;;;;;;17.02;100.00;95588.09;5039336;28;20671;-74
2021/06/21 03:22:19;;;;;;;15.52;3.67;;;;;;;16.89;100.00;95588.34;5039119;28;20213;-74
2021/06/21 03:24:51;;;;;;;12.45;2.72;;;;;;;16.90;100.00;95572.13;5038757;28;21033;-74
2021/06/21 03:27:17;;;;;;;16.60;2.53;;;;;;;16.92;100.00;95577.25;5038551;28;20228;-74
2021/06/21 03:29:44;;;;;;;15.50;4.07;;;;;;;16.94;100.00;95580.47;5039086;28;20205;-74
2021/06/21 03:32:26;;;;;;;17.10;3.03;;;;;;;17.04;100.00;95578.06;5038947;28;20212;-74
2021/06/21 03:34:54;;;;;;;20.40;3.10;;;;;;;17.12;100.00;95575.84;5038522;28;20217;-74
2021/06/21 03:37:21;;;;;;;13.88;2.90;;;;;;;17.15;100.00;95581.50;5038457;28;20292;-74
2021/06/21 03:39:47;;;;;;;12.65;2.53;;;;;;;17.14;100.00;95579.91;5038795;28;20221;-74
2021/06/21 03:42:14;;;;;;;11.93;2.90;;;;;;;17.17;100.00;95581.25;5039192;28;20205;-74
2021/06/21 03:44:40;;;;;;;9.68;2.65;;;;;;;17.21;100.00;95587.78;5038918;28;20221;-74
2021/06/21 03:47:07;;;;;;;13.38;3.42;;;;;;;17.28;100.00;95591.94;5037814;28;20201;-74
2021/06/21 03:49:35;;;;;;;15.15;3.10;;;;;;;17.37;100.00;95587.88;5038845;28;20220;-74
2021/06/21 03:52:01;;;;;;;11.75;3.63;;;;;;;17.42;100.00;95588.00;5038993;28;20296;-73
2021/06/21 03:54:28;;;;;;;14.07;2.97;;;;;;;17.45;100.00;95590.19;5038196;28;20208;-73
2021/06/21 03:56:54;;;;;;;19.35;3.63;;;;;;;17.50;100.00;95592.16;5036446;28;20204;-73
2021/06/21 03:59:21;;;;;;;13.68;3.10;;;;;;;17.32;100.00;95592.28;5038793;28;20201;-73
2021/06/21 04:01:48;;;;;;;13.93;3.35;;;;;;;17.43;100.00;95586.16;5038112;28;20961;-73
2021/06/21 04:04:15;;;;;;;11.40;3.83;;;;;;;17.44;100.00;95577.91;5038145;28;20598;-73
2021/06/21 04:06:43;;;;;;;12.57;3.22;;;;;;;17.46;100.00;95594.47;5038166;28;20675;-73
2021/06/21 04:09:09;;;;;;;13.38;3.42;;;;;;;17.49;100.00;95571.88;5038251;28;20594;-73
2021/06/21 04:11:37;;;;;;;14.00;3.42;;;;;;;17.55;100.00;95577.06;5037979;28;20202;-73
2021/06/21 04:14:04;;;;;;;13.05;3.35;;;;;;;17.58;100.00;95586.44;5038334;28;20560;-73
2021/06/21 04:16:30;;;;;;;10.70;3.10;;;;;;;17.64;100.00;95582.84;5037811;28;20236;-73
2021/06/21 04:18:57;;;;;;;13.52;3.42;;;;;;;17.65;100.00;95585.28;5037800;28;20409;-73
2021/06/21 04:21:23;;;;;;;18.77;3.35;;;;;;;17.69;100.00;95590.94;5038390;28;20220;-73
2021/06/21 04:23:52;;;;;;;15.88;3.00;;;;;;;17.78;100.00;95593.81;5037935;28;20212;-73
2021/06/21 04:26:18;;;;;;;12.55;2.95;;;;;;;17.82;100.00;95589.63;5036867;28;20232;-73
2021/06/21 04:28:45;;;;;;;8.85;2.92;;;;;;;17.90;100.00;95591.13;5037700;28;20224;-72
2021/06/21 04:31:11;;;;;;;11.98;3.60;;;;;;;17.91;100.00;95582.88;5037798;28;21118;-72
2021/06/21 04:33:38;;;;;;;16.95;3.03;;;;;;;18.00;100.00;95586.00;5037554;28;20887;-73
2021/06/21 04:36:05;;;;;;;12.85;3.50;;;;;;;18.04;100.00;95581.78;5037033;28;20225;-72
2021/06/21 04:38:31;;;;;;;16.65;2.90;;;;;;;18.11;100.00;95583.25;5038043;28;20197;-73
2021/06/21 04:40:59;;;;;;;15.95;3.25;;;;;;;18.16;100.00;95571.88;5037283;28;20212;-73
2021/06/21 04:43:26;;;;;;;11.55;2.58;;;;;;;18.16;100.00;95558.53;5037411;28;20204;-73
2021/06/21 04:45:52;;;;;;;8.52;2.67;;;;;;;18.10;100.00;95556.81;5036814;28;20217;-73
2021/06/21 04:48:19;;;;;;;11.98;2.55;;;;;;;18.13;100.00;95556.38;5037110;28;21282;-72
2021/06/21 04:50:45;;;;;;;12.98;2.78;;;;;;;18.20;100.00;95554.38;5037635;28;20201;-73
2021/06/21 04:53:13;;;;;;;12.55;2.53;;;;;;;18.20;100.00;95552.53;5037112;28;20209;-72
2021/06/21 04:55:40;;;;;;;10.73;2.33;;;;;;;18.24;100.00;95567.00;5036474;28;20248;-73
2021/06/21 04:58:08;;;;;;;10.80;2.45;;;;;;;18.18;100.00;95561.84;5037121;28;20202;-73
2021/06/21 05:00:35;;;;;;;8.85;2.50;;;;;;;18.18;100.00;95559.16;5037433;28;20205;-72
2021/06/21 05:03:01;;;;;;;9.00;2.20;;;;;;;18.18;100.00;95559.97;5037162;28;20205;-72
2021/06/21 05:05:28;;;;;;;9.93;2.10;;;;;;;18.18;100.00;95559.97;5036228;28;20246;-72
2021/06/21 05:07:55;;;;;;;12.30;2.40;;;;;;;18.25;100.00;95551.81;5036775;28;20248;-72
2021/06/21 05:10:24;;;;;;;12.77;3.30;;;;;;;18.29;100.00;95552.94;5037176;28;20209;-72
2021/06/21 05:12:51;;;;;;;9.73;1.90;;;;;;;18.36;100.00;95567.75;5036602;28;20220;-72
2021/06/21 05:15:19;;;;;;;14.30;2.20;;;;;;;18.45;100.00;95560.97;5036943;28;20244;-72
2021/06/21 05:17:46;;;;;;;12.27;2.17;;;;;;;18.50;100.00;95567.19;5037973;28;20213;-72
2021/06/21 05:20:13;;;;;;;13.98;2.38;;;;;;;18.58;100.00;95563.31;5036869;28;20205;-72
2021/06/21 05:22:39;;;;;;;10.05;2.03;;;;;;;18.70;100.00;95567.53;5036398;28;20209;-71
2021/06/21 05:25:07;;;;;;;11.63;2.42;;;;;;;18.76;100.00;95563.91;5036464;28;20229;-73
2021/06/21 05:27:34;;;;;;;10.45;2.13;;;;;;;18.96;100.00;95564.19;5036491;28;20202;-73
2021/06/21 05:30:01;;;;;;;10.43;2.20;;;;;;;18.94;100.00;95574.31;5036417;28;20209;-73
2021/06/21 05:32:29;;;;;;;10.40;2.03;;;;;;;18.89;100.00;95554.72;5037205;28;20201;-73
2021/06/21 05:34:55;;;;;;;9.30;2.42;;;;;;;18.86;100.00;95569.38;5036538;28;20600;-73
2021/06/21 05:37:22;;;;;;;15.75;2.03;;;;;;;18.89;100.00;95573.41;5035530;28;20906;-73
2021/06/21 05:39:48;;;;;;;12.48;1.83;;;;;;;18.88;100.00;95574.50;5036725;28;20200;-73
2021/06/21 05:42:17;;;;;;;10.27;1.90;;;;;;;18.88;100.00;95577.97;5036687;28;20201;-73
2021/06/21 05:44:44;;;;;;;14.35;2.67;;;;;;;18.92;100.00;95583.63;5036398;28;20229;-73
2021/06/21 05:47:10;;;;;;;10.77;2.05;;;;;;;18.94;100.00;95590.34;5035957;28;20209;-73
2021/06/21 05:49:38;;;;;;;12.48;1.83;;;;;;;18.94;100.00;95585.00;5036431;28;20221;-73
2021/06/21 05:52:05;;;;;;;12.30;1.88;;;;;;;18.97;100.00;95589.84;5036482;28;20706;-73
2021/06/21 05:54:32;;;;;;;9.85;1.67;;;;;;;18.94;100.00;95601.03;5035933;28;20205;-73
2021/06/21 05:56:58;;;;;;;11.63;1.83;;;;;;;18.92;100.00;95587.09;5036151;28;20201;-73
2021/06/21 05:59:25;;;;;;;8.15;2.00;;;;;;;18.99;100.00;95593.91;5036471;28;20197;-73
2021/06/21 06:01:51;;;;;;;10.60;2.03;;;;;;;19.05;100.00;95594.78;5036291;28;20212;-73
2021/06/21 06:04:18;;;;;;;8.32;1.85;;;;;;;19.11;100.00;95596.50;5036404;28;20209;-73
2021/06/21 06:06:45;;;;;;;13.15;2.13;;;;;;;19.21;100.00;95585.97;5035577;28;20672;-73
2021/06/21 06:09:12;;;;;;;13.93;2.00;;;;;;;19.18;100.00;95597.13;5035518;28;20236;-76
2021/06/21 06:11:38;;;;;;;9.88;1.77;;;;;;;19.10;100.00;95594.88;5036186;28;20224;-74
2021/06/21 06:14:05;;;;;;;8.40;1.92;;;;;;;19.21;100.00;95585.97;5036289;28;20674;-74
2021/06/21 06:16:32;;;;;;;9.32;2.10;;;;;;;19.16;100.00;95597.38;5035227;28;20221;-74
2021/06/21 06:18:58;;;;;;;11.32;1.85;;;;;;;19.27;100.00;95595.66;5036496;28;20197;-77
2021/06/21 06:21:29;;;;;;;15.77;2.08;;;;;;;19.45;100.00;95593.53;5039419;28;20205;-76
2021/06/21 06:23:57;;;;;;;10.45;2.13;;;;;;;19.44;100.00;95596.47;5039759;28;20375;-74
2021/06/21 06:26:24;;;;;;;12.32;2.60;;;;;;;19.49;100.00;95592.00;5039182;28;21176;-77
2021/06/21 06:28:50;;;;;;;8.90;1.90;;;;;;;19.57;100.00;95603.03;5041231;28;20315;-76
2021/06/21 06:31:17;;;;;;;12.38;2.33;;;;;;;19.57;100.00;95601.44;5039068;28;20197;-77
2021/06/21 06:33:43;;;;;;;11.15;2.00;;;;;;;19.61;100.00;95600.69;5038880;28;20212;-76
2021/06/21 06:36:10;;;;;;;9.90;2.92;;;;;;;19.69;100.00;95614.44;5039543;28;20232;-74
2021/06/21 06:38:37;;;;;;;13.15;2.13;;;;;;;19.80;100.00;95615.38;5039830;28;20216;-77
2021/06/21 06:41:05;;;;;;;12.18;2.00;;;;;;;19.82;100.00;95611.41;5039086;28;20205;-74
2021/06/21 06:43:32;;;;;;;14.02;2.53;;;;;;;20.04;100.00;95617.56;5039263;28;20585;-75
2021/06/21 06:45:58;;;;;;;10.40;2.40;;;;;;;20.20;100.00;95619.38;5037568;28;20221;-76
2021/06/21 06:48:25;;;;;;;11.27;2.05;;;;;;;20.34;100.00;95616.06;5038574;28;20228;-74
2021/06/21 06:50:51;;;;;;;10.48;2.00;;;;;;;20.25;99.95;95612.22;5039435;28;20205;-75
2021/06/21 06:53:26;;;;;;;11.43;1.98;;;;;;;20.06;100.00;95607.47;5038823;28;20559;-74
2021/06/21 06:58:38;;;;;;;14.45;2.22;;;;;;;19.85;100.00;95605.53;5039048;28;20335;-74
2021/06/21 07:01:04;;;;;;;10.95;2.10;;;;;;;19.88;100.00;95615.75;5038779;28;20206;-76
2021/06/21 07:03:31;;;;;;;10.52;2.00;;;;;;;20.16;100.00;95612.91;5038286;28;20709;-75
2021/06/21 07:05:57;;;;;;;8.02;1.98;;;;;;;20.48;100.00;95601.22;5037869;28;20217;-74
2021/06/21 07:08:24;;;;;;;10.27;2.30;;;;;;;20.54;99.89;95604.75;5039084;28;20586;-75
2021/06/21 07:10:50;;;;;;;11.27;2.85;;;;;;;20.64;100.00;95618.22;5038461;28;20683;-75
2021/06/21 07:13:17;;;;;;;7.53;2.00;;;;;;;20.72;96.15;95617.75;5038574;28;20212;-74
2021/06/21 07:15:44;;;;;;;7.22;1.98;;;;;;;20.85;99.96;95628.91;5037864;28;20232;-74
2021/06/21 07:18:11;;;;;;;8.30;2.33;;;;;;;20.99;100.00;95636.25;5038757;28;20671;-74
2021/06/21 07:20:37;;;;;;;11.90;1.83;;;;;;;21.06;97.02;95639.53;5038198;28;20228;-77
2021/06/21 07:23:04;;;;;;;18.17;3.17;;;;;;;21.18;90.47;95640.16;5039285;28;20212;-74
2021/06/21 07:25:30;;;;;;;10.23;1.92;;;;;;;21.28;91.93;95634.06;5037289;28;20225;-74
2021/06/21 07:27:57;;;;;;;14.60;2.58;;;;;;;21.29;89.67;95635.69;5038133;28;20960;-75
2021/06/21 07:30:24;;;;;;;9.68;1.83;;;;;;;21.28;94.14;95634.88;5038946;28;20236;-74
2021/06/21 07:32:53;;;;;;;14.65;2.40;;;;;;;21.44;93.26;95636.59;5037704;28;20803;-76
2021/06/21 07:35:19;;;;;;;9.40;1.90;;;;;;;21.54;92.49;95625.97;5037252;28;20278;-75
2021/06/21 07:37:46;;;;;;;7.03;1.90;;;;;;;21.67;92.48;95628.19;5038403;28;20212;-74
2021/06/21 07:40:13;;;;;;;7.00;2.22;;;;;;;21.80;91.82;95635.78;5039010;28;20205;-74
2021/06/21 07:42:39;;;;;;;6.35;1.70;;;;;;;21.85;85.28;95627.75;5037600;28;20212;-75
2021/06/21 07:45:07;;;;;;;8.43;1.75;;;;;;;21.88;87.68;95620.00;5037181;28;20522;-78
2021/06/21 07:47:34;;;;;;;8.05;1.75;;;;;;;21.69;84.54;95618.81;5038329;28;20209;-75
2021/06/21 07:50:01;;;;;;;9.68;1.60;;;;;;;21.75;85.92;95617.78;5038132;28;20711;-75
2021/06/21 07:52:28;;;;;;;10.35;1.85;;;;;;;21.68;89.03;95603.00;5037918;28;20582;-75
2021/06/21 07:54:59;;;;;;;10.43;1.90;;;;;;;21.78;85.71;95611.91;5038097;28;20229;-75
2021/06/21 07:57:25;;;;;;;8.30;1.70;;;;;;;21.85;84.22;95622.41;5037525;28;20209;-76
2021/06/21 07:59:51;;;;;;;7.80;1.70;;;;;;;21.92;82.64;95620.28;5037775;28;20197;-74
2021/06/21 08:02:18;;;;;;;10.88;1.95;;;;;;;21.92;85.12;95631.00;5037472;28;20201;-74
2021/06/21 08:04:47;;;;;;;6.53;2.28;;;;;;;21.95;83.84;95617.88;5037913;28;20236;-75
2021/06/21 08:07:15;;;;;;;8.30;1.92;;;;;;;22.07;87.62;95619.28;5037167;28;20241;-76
2021/06/21 08:09:41;;;;;;;7.50;1.67;;;;;;;22.12;83.71;95616.63;5037583;28;20225;-76
2021/06/21 08:12:09;;;;;;;11.25;2.28;;;;;;;22.16;83.54;95615.03;5037712;28;20203;-77
2021/06/21 08:14:35;;;;;;;7.43;2.10;;;;;;;22.16;81.89;95612.34;5036995;28;20224;-76
2021/06/21 08:17:02;;;;;;;8.68;1.80;;;;;;;22.25;82.70;95616.13;5036632;28;20205;-77
2021/06/21 08:19:28;;;;;;;8.23;1.80;;;;;;;22.43;86.93;95615.66;5037677;28;20479;-74
2021/06/21 08:21:54;;;;;;;5.57;1.48;;;;;;;22.52;77.99;95614.06;5037171;28;20771;-74
2021/06/21 08:24:22;;;;;;;6.47;1.70;;;;;;;22.67;79.20;95616.81;5037125;28;20702;-75
2021/06/21 08:26:49;;;;;;;11.85;1.80;;;;;;;22.68;76.83;95618.41;5036733;28;20205;-77
2021/06/21 08:29:15;;;;;;;12.15;1.80;;;;;;;22.63;79.06;95620.28;5036725;28;20703;-76
2021/06/21 08:31:42;;;;;;;6.05;1.38;;;;;;;22.63;78.19;95618.38;5035088;28;20703;-77
2021/06/21 08:34:08;;;;;;;10.23;2.05;;;;;;;22.80;77.50;95611.69;5035490;28;20205;-76
2021/06/21 08:36:35;;;;;;;6.70;1.73;;;;;;;22.80;74.76;95613.59;5036356;28;20220;-74
2021/06/21 08:39:01;;;;;;;8.60;1.80;;;;;;;22.67;73.96;95617.59;5036981;28;20205;-74
2021/06/21 08:41:29;;;;;;;6.30;1.38;;;;;;;22.78;75.77;95621.09;5037510;28;20201;-75
2021/06/21 08:43:55;;;;;;;5.38;1.70;;;;;;;22.79;76.57;95611.97;5036120;28;20205;-74
2021/06/21 08:46:22;;;;;;;11.25;1.98;;;;;;;23.00;78.41;95617.13;5036242;28;20224;-74
2021/06/21 08:48:49;;;;;;;5.93;1.50;;;;;;;23.30;79.64;95617.13;5037291;28;20202;-76
2021/06/21 08:51:17;;;;;;;9.02;2.10;;;;;;;23.42;73.62;95618.47;5036882;28;20576;-75
2021/06/21 08:53:44;;;;;;;7.80;1.73;;;;;;;23.46;78.28;95614.16;5035956;28;20691;-77
2021/06/21 08:56:10;;;;;;;8.45;1.63;;;;;;;23.71;77.04;95616.00;5036795;28;20678;-75
2021/06/21 08:58:39;;;;;;;7.35;1.30;;;;;;;23.77;67.96;95610.34;5036422;28;20693;-76
2021/06/21 09:01:05;;;;;;;6.75;1.17;;;;;;;23.51;63.08;95614.13;5036914;28;20402;-75
2021/06/21 09:03:32;;;;;;;3.70;1.30;;;;;;;23.49;66.54;95618.97;5035944;28;20216;-74
2021/06/21 09:05:59;;;;;;;4.60;1.30;;;;;;;23.66;69.57;95611.44;5035525;28;20233;-78
2021/06/21 09:08:25;;;;;;;8.40;1.48;;;;;;;23.85;71.98;95604.38;5036809;28;20205;-75
2021/06/21 09:10:52;;;;;;;3.75;1.00;;;;;;;23.90;65.22;95600.88;5035773;28;20593;-78
2021/06/21 09:13:20;;;;;;;9.20;1.38;;;;;;;24.01;68.31;95600.59;5036470;28;20216;-77
2021/06/21 09:15:51;;;;;;;9.98;1.73;;;;;;;24.14;67.12;95594.59;5035645;28;20233;-74
2021/06/21 09:18:30;;;;;;;11.98;1.63;;;;;;;24.20;69.29;95601.59;5036370;28;20209;-78
2021/06/21 09:21:23;;;;;;;5.78;1.20;;;;;;;24.16;67.30;95604.00;5036486;28;20196;-78
2021/06/21 09:23:53;;;;;;;5.38;1.38;;;;;;;24.15;65.78;95607.78;5035989;28;20208;-77
2021/06/21 09:26:22;;;;;;;3.40;1.25;;;;;;;24.15;64.71;95601.59;5035224;28;20229;-77
2021/06/21 09:28:49;;;;;;;5.15;1.20;;;;;;;24.09;63.35;95610.78;5035916;28;20449;-75
2021/06/21 09:31:17;;;;;;;4.35;1.23;;;;;;;24.19;63.64;95605.34;5036164;28;20205;-76
2021/06/21 09:33:44;;;;;;;6.03;1.13;;;;;;;24.04;65.35;95600.03;5033321;28;20202;-75
2021/06/21 09:36:24;;;;;;;7.65;1.45;;;;;;;24.20;63.97;95601.59;5035255;28;20445;-75
2021/06/21 09:39:19;;;;;;;6.50;1.70;;;;;;;24.32;61.76;95591.28;5035934;28;20200;-75
2021/06/21 09:42:04;;;;;;;5.68;1.30;;;;;;;24.46;64.03;95601.19;5035654;28;20690;-77
2021/06/21 09:44:31;;;;;;;3.15;1.15;;;;;;;24.78;67.99;95596.97;5035899;28;20205;-75
2021/06/21 09:47:21;;;;;;;6.57;1.40;;;;;;;25.05;61.76;95591.13;5035453;28;20503;-78
2021/06/21 09:50:16;;;;;;;7.50;1.50;;;;;;;24.97;60.71;95589.78;5035309;28;20224;-77
2021/06/21 09:52:49;;;;;;;6.07;1.77;;;;;;;25.03;63.87;95593.28;5035918;28;20205;-77
2021/06/21 09:55:29;;;;;;;7.25;1.25;;;;;;;25.06;61.92;95598.13;5034996;28;20221;-75
2021/06/21 09:58:11;;;;;;;6.75;1.73;;;;;;;24.90;64.86;95600.09;5035259;28;20197;-75
2021/06/21 10:00:39;;;;;;;4.55;1.30;;;;;;;24.96;59.62;95601.69;5036478;28;20205;-77
2021/06/21 10:03:15;;;;;;;7.55;1.40;;;;;;;24.95;60.18;95600.06;5035953;28;20205;-75
2021/06/21 10:05:43;;;;;;;5.80;1.30;;;;;;;24.84;60.26;95595.03;5034948;28;20681;-76
2021/06/21 10:08:12;;;;;;;6.05;1.30;;;;;;;24.98;59.04;95596.81;5035319;28;20208;-74
2021/06/21 10:10:41;;;;;;;4.32;1.67;;;;;;;24.97;55.88;95591.69;5036829;28;20235;-77
2021/06/21 10:13:09;;;;;;;4.57;1.20;;;;;;;24.92;54.11;95592.53;5035787;28;20209;-76
2021/06/21 10:15:36;;;;;;;3.80;1.00;;;;;;;25.05;55.13;95597.34;5034940;28;20232;-75
2021/06/21 10:18:05;;;;;;;5.85;1.20;;;;;;;25.01;58.60;95590.84;5035575;28;20209;-74
2021/06/21 10:20:31;;;;;;;3.58;1.50;;;;;;;25.14;59.89;95590.25;5035546;28;20208;-76
2021/06/21 10:22:58;;;;;;;4.78;1.13;;;;;;;25.33;60.41;95593.84;5035608;28;20201;-78
2021/06/21 10:25:25;;;;;;;2.67;1.08;;;;;;;25.10;55.57;95588.38;5034527;28;20236;-77
2021/06/21 10:27:53;;;;;;;4.47;0.93;;;;;;;25.33;55.01;95593.84;5035340;28;20574;-78
2021/06/21 10:30:21;;;;;;;7.80;1.65;;;;;;;25.33;57.86;95588.44;5035325;28;20718;-78
2021/06/21 10:32:49;;;;;;;8.30;1.23;;;;;;;25.62;57.46;95590.03;5032939;28;20514;-77
2021/06/21 10:35:17;;;;;;;3.22;1.05;;;;;;;25.88;56.18;95592.22;5034847;28;20712;-75
2021/06/21 10:38:01;;;;;;;4.88;1.40;;;;;;;25.98;59.18;95589.41;5035412;28;20212;-76
2021/06/21 10:40:29;;;;;;;4.65;1.42;;;;;;;25.79;54.65;95592.34;5035271;28;20205;-76
2021/06/21 10:42:57;;;;;;;3.97;1.10;;;;;;;26.15;58.64;95588.94;5035387;28;20206;-77
2021/06/21 10:45:25;;;;;;;3.97;1.20;;;;;;;26.16;57.99;95583.25;5034602;28;20236;-79
2021/06/21 10:48:07;;;;;;;2.67;1.15;;;;;;;26.34;59.86;95584.41;5035283;28;20198;-77
2021/06/21 10:50:33;;;;;;;4.72;1.27;;;;;;;26.30;56.03;95586.03;5035924;28;20229;-76
2021/06/21 10:53:01;;;;;;;3.40;1.20;;;;;;;26.58;57.00;95575.16;5035007;28;20580;-79
2021/06/21 10:55:41;;;;;;;8.38;1.42;;;;;;;26.51;53.75;95580.13;5034648;28;20256;-77
2021/06/21 10:58:45;;;;;;;6.03;1.30;;;;;;;26.65;55.94;95570.97;5035262;28;20201;-79
2021/06/21 11:01:18;;;;;;;6.38;1.42;;;;;;;27.02;49.53;95570.19;5034752;28;20209;-76
2021/06/21 11:03:44;;;;;;;2.70;1.00;;;;;;;26.98;45.94;95575.38;5035401;28;20209;-77
2021/06/21 11:06:35;;;;;;;3.95;1.10;;;;;;;27.05;46.52;95575.00;5035318;28;20608;-76
2021/06/21 11:09:04;;;;;;;4.88;1.42;;;;;;;26.85;46.83;95570.69;5038956;28;20441;-77
2021/06/21 11:11:52;;;;;;;1.50;1.00;;;;;;;26.94;49.25;95576.25;5038879;28;20551;-75
2021/06/21 11:14:28;;;;;;;3.30;1.00;;;;;;;26.97;47.51;95571.06;5038696;28;20308;-76
2021/06/21 11:17:26;;;;;;;8.23;1.20;;;;;;;27.08;46.80;95573.31;5037588;28;20472;-77
2021/06/21 11:19:53;;;;;;;4.00;1.27;;;;;;;26.90;49.00;95584.13;4976355;28;20535;-76
2021/06/21 11:22:44;;;;;;;2.92;1.10;;;;;;;27.02;48.58;95581.00;5024912;28;21136;-78
2021/06/21 11:25:22;;;;;;;4.13;1.10;;;;;;;27.29;49.14;95571.91;5037404;28;20220;-76
2021/06/21 11:27:48;;;;;;;2.85;1.10;;;;;;;27.20;45.74;95584.50;5038525;28;20212;-75
2021/06/21 11:30:32;;;;;;;5.65;1.13;;;;;;;27.01;45.42;95579.41;5038660;28;20232;-77
2021/06/21 11:33:06;;;;;;;5.15;1.38;;;;;;;27.10;47.89;95581.94;5035021;28;20214;-75
2021/06/21 11:36:01;;;;;;;2.97;1.20;;;;;;;27.19;48.56;95587.50;5037704;28;20232;-76
2021/06/21 11:38:41;;;;;;;4.53;1.20;;;;;;;27.01;46.74;95591.03;5037864;28;20216;-78